Ashland City, Tennessee
Current Conditions -  °F | °C
As of 2:55 PM on Sunday 23 Nov 2014 (Local Time) from KM91 Reporting Station
Overcast Overcast  
Wind Chill: 57°   Ceiling: 800
Heat Index: 57°   Visibility: 5mi
Dew Point: 57°   Wind: 8mph
Humidity: 100%   Direction: 140°SE
Pressure: 29.46"   Gusts: NA
Location:  36.27°N, 87.06°W
Report Text: KM91 232055Z AUTO 14007KT 5SM BKN008 OVC020 14/14 A2946 RMK
Loading
Personal Weather Stations






























Interactive Weather Map New forecast layout! Learn more

10-Day Weather Forecast

Advertisements
Track Severe Weather on mobile